N604WP PC-12 destroyed in crash - Hayden Colorado


#1

FlightAware Flight Tracker

N604WP PC-12 departed at 09:38 to the West in heavy snow conditions, aircraft failed to contact ATC, and wreckage was found North of the runway, suggesting an attempt to return to the airfield.

** Report created 1/12/2009 Record 1 **


IDENTIFICATION
Regis#: 604WP Make/Model: PC12 Description: PC-12, Eagle
Date: 01/11/2009 Time: 1642

Event Type: Accident Highest Injury: Fatal Mid Air: N Missing: N
Damage: Destroyed

LOCATION
City: HAYDEN State: CO Country: US

DESCRIPTION
AIRCRAFT CRASHED UNDER UNKNOWN CIRCUMSTANCES, THE TWO PERSONS ON BOARD WERE
FATALLY INJURED, 2 MILES FROM HAYDEN, CO

INJURY DATA Total Fatal: 2
# Crew: 2 Fat: 2 Ser: 0 Min: 0 Unk:
# Pass: 0 Fat: 0 Ser: 0 Min: 0 Unk:
# Grnd: Fat: 0 Ser: 0 Min: 0 Unk:

WEATHER: KHDN 111635Z 10004KT 3/4SM OVC012 M07/M08 A3038

OTHER DATA
Activity: Unknown Phase: Unknown Operation: OTHER

FAA FSDO: DENVER, CO (NM03) Entry date: 01/12/2009

News Link